Strona główna
METAR-TAF:

METAR-TAF

Lotnisko :

Palma de Mallorca, Hiszpania

Port lotniczy Palma de Mallorca

Szerokość geograficzna: 39-33N, Długość geograficzna: 002-44E, wysokość: 4 m

Aktualna obserwacja pogody

Raport powstał 27 minut temu, godzina 11:00 UTC
Wiatr 2 kt z kierunków zmiennych
Temperatura 16°C
Wilgotność 68%
Ciśnienie 1026 hPa
Widzialność: 9000 m
Rozproszone chmury na wysokości 2200 ft

METAR: LEPA 181100Z VRB02KT 9000 SCT022 16/10 Q1026 NOSIG

czas: 12:27 (11:27 UTC)

Prognoza

Raport powstał 6 godziny i 27 minut temu, godzina 05:00 UTC
Prognoza ważna od 18 godzina 06 UTC do 19 godzina 06 UTC
Wiatr 3 kt z kierunków zmiennych
Widzialność 10 km lub więcej
Przerywane chmury na wysokości 3000 ft
Stopniowe zmiany
od 18 godzina 10 UTC do 18 godzina 12 UTC
Wiatr 8 kt od południowy zachód
Stopniowe zmiany
od 18 godzina 18 UTC do 18 godzina 20 UTC
Wiatr 3 kt z kierunków zmiennych

TAF: LEPA 180500Z 1806/1906 VRB03KT 9999 BKN030 TX15/1812Z TN08/1806Z BECMG 1810/1812 22008KT BECMG 1818/1820 VRB03KT

Obserwacja i prognoza pogody dla ponad 4000 lotnisk (raport METAR i TAF).

Dostępne stacje oznaczono żółtymi i czerwonymi punktami na mapie.

Najedź kursorem aby zobaczyć nazwę stacji.

Kliknij aby zobaczyć obserwacje i prognozy pogody.

Aby zmienić mapę: kliknij na zielony przycisk z czarnym krzyżykiem, aby powiększyć; na zielony przycisk z myślnikiem, aby pomniejszyć; na zielone strzałki, aby przejść do map sąsiednich.


METAR-TAF: